createdAt,value
2018-02-07T00:00:38.034Z,21.10
2018-02-07T00:01:38.010Z,20.90
2018-02-07T00:02:37.980Z,21.10
2018-02-07T00:03:37.953Z,22.20
2018-02-07T00:04:37.921Z,21.40
2018-02-07T00:05:37.922Z,22.20
2018-02-07T00:06:37.862Z,20.90
2018-02-07T00:07:37.828Z,21.90
2018-02-07T00:08:37.796Z,22.70
2018-02-07T00:09:37.769Z,22.30
2018-02-07T00:10:37.744Z,23.10
2018-02-07T00:11:37.713Z,21.30
2018-02-07T00:12:37.679Z,21.60
2018-02-07T00:13:37.652Z,21.80
2018-02-07T00:14:37.620Z,22.60
2018-02-07T00:15:37.592Z,22.50
2018-02-07T00:16:37.561Z,21.70
2018-02-07T00:17:37.532Z,23.00
2018-02-07T00:18:37.502Z,22.40
2018-02-07T00:19:37.474Z,21.00
2018-02-07T00:20:37.443Z,22.80
2018-02-07T00:21:37.412Z,22.80
2018-02-07T00:22:37.384Z,24.20
2018-02-07T00:23:37.359Z,22.80
2018-02-07T00:24:37.324Z,22.30
2018-02-07T00:25:37.294Z,23.70
2018-02-07T00:26:37.263Z,22.40
2018-02-07T00:27:37.229Z,23.70
2018-02-07T00:28:37.206Z,23.80
2018-02-07T00:29:37.176Z,24.60
2018-02-07T00:30:37.143Z,21.90
2018-02-07T00:31:37.115Z,22.40
2018-02-07T00:32:37.085Z,23.60
2018-02-07T00:33:37.054Z,23.40
2018-02-07T00:34:37.022Z,23.70
2018-02-07T00:35:36.995Z,21.90
2018-02-07T00:36:36.964Z,22.20
2018-02-07T00:37:36.932Z,23.50
2018-02-07T00:38:36.906Z,22.60
2018-02-07T00:39:36.877Z,23.70
2018-02-07T00:40:36.844Z,22.70
2018-02-07T00:41:36.815Z,22.30
2018-02-07T00:42:36.786Z,24.10
2018-02-07T00:43:36.760Z,23.10
2018-02-07T00:44:36.726Z,24.20
2018-02-07T00:45:36.698Z,23.00
2018-02-07T00:46:36.666Z,23.40
2018-02-07T00:47:36.635Z,23.20
2018-02-07T00:48:36.604Z,23.90
2018-02-07T00:49:36.574Z,24.50
2018-02-07T00:50:36.558Z,24.50
2018-02-07T00:51:36.515Z,23.90
2018-02-07T00:52:36.483Z,25.40
2018-02-07T00:53:36.454Z,25.00
2018-02-07T00:54:36.424Z,23.30
2018-02-07T00:55:36.397Z,23.20
2018-02-07T00:56:36.362Z,24.20
2018-02-07T00:57:36.332Z,22.80
2018-02-07T00:58:36.303Z,24.20
2018-02-07T00:59:36.273Z,22.80
2018-02-07T01:00:36.241Z,22.70
2018-02-07T01:01:36.213Z,22.70
2018-02-07T01:02:36.181Z,23.50
2018-02-07T01:03:36.152Z,24.10
2018-02-07T01:04:36.121Z,23.30
2018-02-07T01:05:36.090Z,23.60
2018-02-07T01:06:36.061Z,23.50
2018-02-07T01:07:36.030Z,23.80
2018-02-07T01:08:36.002Z,22.40
2018-02-07T01:09:35.971Z,22.30
2018-02-07T01:10:35.941Z,23.60
2018-02-07T01:11:35.912Z,25.00
2018-02-07T01:12:35.880Z,23.20
2018-02-07T01:13:35.847Z,22.40
2018-02-07T01:14:35.821Z,23.80
2018-02-07T01:15:35.791Z,23.30
2018-02-07T01:16:35.760Z,23.10
2018-02-07T01:17:35.731Z,24.20
2018-02-07T01:18:35.749Z,24.00
2018-02-07T01:19:35.673Z,24.00
2018-02-07T01:20:35.640Z,23.10
2018-02-07T01:21:35.608Z,22.30
2018-02-07T01:22:35.579Z,23.60
2018-02-07T01:23:35.549Z,23.50
2018-02-07T01:24:35.520Z,23.70
2018-02-07T01:25:35.490Z,22.80
2018-02-07T01:26:35.459Z,23.80
2018-02-07T01:27:35.429Z,23.70
2018-02-07T01:28:35.450Z,24.20
2018-02-07T01:29:35.366Z,24.20
2018-02-07T01:30:35.337Z,22.70
2018-02-07T01:31:35.309Z,22.60
2018-02-07T01:32:35.277Z,23.60
2018-02-07T01:33:35.246Z,23.00
2018-02-07T01:34:35.216Z,23.40
2018-02-07T01:35:35.187Z,22.40
2018-02-07T01:36:35.157Z,22.90
2018-02-07T01:37:35.127Z,23.60
2018-02-07T01:38:35.099Z,23.70
2018-02-07T01:39:35.066Z,23.80
2018-02-07T01:40:35.035Z,23.30
2018-02-07T01:41:35.006Z,24.30
2018-02-07T01:42:34.975Z,25.10
2018-02-07T01:43:34.945Z,23.80
2018-02-07T01:44:34.914Z,23.10
2018-02-07T01:45:34.885Z,23.80
2018-02-07T01:46:34.853Z,23.80
2018-02-07T01:47:34.824Z,24.10
2018-02-07T01:48:34.793Z,22.40
2018-02-07T01:49:34.764Z,23.80
2018-02-07T01:50:34.734Z,24.10
2018-02-07T01:51:34.704Z,24.10
2018-02-07T01:52:34.673Z,23.90
2018-02-07T01:53:34.641Z,22.00
2018-02-07T01:54:34.613Z,23.20
2018-02-07T01:55:34.583Z,23.20
2018-02-07T01:56:34.552Z,22.80
2018-02-07T01:57:34.520Z,23.40
2018-02-07T01:58:34.491Z,22.50
2018-02-07T01:59:34.460Z,23.50
2018-02-07T02:00:34.431Z,23.80
2018-02-07T02:01:34.400Z,23.90
2018-02-07T02:02:34.369Z,23.90
2018-02-07T02:03:34.339Z,22.80
2018-02-07T02:04:34.308Z,24.20
2018-02-07T02:05:34.279Z,23.10
2018-02-07T02:06:34.248Z,24.00
2018-02-07T02:07:34.219Z,24.10
2018-02-07T02:08:34.187Z,23.40
2018-02-07T02:09:34.156Z,24.00
2018-02-07T02:10:34.128Z,22.60
2018-02-07T02:11:34.097Z,23.30
2018-02-07T02:12:34.068Z,24.40
2018-02-07T02:13:34.037Z,24.20
2018-02-07T02:14:34.006Z,22.40
2018-02-07T02:15:33.976Z,22.00
2018-02-07T02:16:33.945Z,23.30
2018-02-07T02:17:33.916Z,23.70
2018-02-07T02:18:33.887Z,24.20
2018-02-07T02:19:33.857Z,24.40
2018-02-07T02:20:33.830Z,22.70
2018-02-07T02:21:33.794Z,22.60
2018-02-07T02:22:33.765Z,23.20
2018-02-07T02:23:33.738Z,25.40
2018-02-07T02:24:33.703Z,23.50
2018-02-07T02:25:33.674Z,23.20
2018-02-07T02:26:33.644Z,24.30
2018-02-07T02:27:33.615Z,23.20
2018-02-07T02:28:33.584Z,23.60
2018-02-07T02:29:33.549Z,23.60
2018-02-07T02:30:33.523Z,22.60
2018-02-07T02:31:33.493Z,23.60
2018-02-07T02:32:33.461Z,23.50
2018-02-07T02:33:33.431Z,23.10
2018-02-07T02:34:33.402Z,23.00
2018-02-07T02:35:33.372Z,24.40
2018-02-07T02:36:33.340Z,23.10
2018-02-07T02:37:33.310Z,22.20
2018-02-07T02:38:33.281Z,23.10
2018-02-07T02:39:33.250Z,22.70
2018-02-07T02:40:33.220Z,24.00
2018-02-07T02:41:33.193Z,24.90
2018-02-07T02:42:33.161Z,23.30
2018-02-07T02:43:33.129Z,23.60
2018-02-07T02:44:33.098Z,24.10
2018-02-07T02:45:33.070Z,24.00
2018-02-07T02:46:33.042Z,23.40
2018-02-07T02:47:33.010Z,23.60
2018-02-07T02:48:32.980Z,22.50
2018-02-07T02:49:32.947Z,22.60
2018-02-07T02:50:32.919Z,22.40
2018-02-07T02:51:32.887Z,24.10
2018-02-07T02:52:32.858Z,23.80
2018-02-07T02:53:32.827Z,22.70
2018-02-07T02:54:32.797Z,24.40
2018-02-07T02:55:32.797Z,23.80
2018-02-07T02:56:32.736Z,23.20
2018-02-07T02:57:32.706Z,23.40
2018-02-07T02:58:32.676Z,23.10
2018-02-07T02:59:32.646Z,21.70
2018-02-07T03:00:32.615Z,22.80
2018-02-07T03:01:32.584Z,22.20
2018-02-07T03:02:32.554Z,24.70
2018-02-07T03:03:32.522Z,23.60
2018-02-07T03:04:32.495Z,22.90
2018-02-07T03:05:32.466Z,23.10
2018-02-07T03:06:32.434Z,23.80
2018-02-07T03:07:32.403Z,24.00
2018-02-07T03:08:32.374Z,23.40
2018-02-07T03:09:32.341Z,24.20
2018-02-07T03:10:32.312Z,24.50
2018-02-07T03:11:32.281Z,22.80
2018-02-07T03:12:32.251Z,23.50
2018-02-07T03:13:32.221Z,22.80
2018-02-07T03:14:32.190Z,23.40
2018-02-07T03:15:32.160Z,23.10
2018-02-07T03:16:32.127Z,22.70
2018-02-07T03:17:32.099Z,23.60
2018-02-07T03:18:32.069Z,23.40
2018-02-07T03:19:32.040Z,24.20
2018-02-07T03:20:32.010Z,24.60
2018-02-07T03:21:32.027Z,24.80
2018-02-07T03:22:31.945Z,23.80
2018-02-07T03:23:31.915Z,24.10
2018-02-07T03:24:31.886Z,24.40
2018-02-07T03:25:31.854Z,23.80
2018-02-07T03:26:31.825Z,23.70
2018-02-07T03:27:31.794Z,23.10
2018-02-07T03:28:31.764Z,23.90
2018-02-07T03:29:31.732Z,24.70
2018-02-07T03:30:31.702Z,22.70
2018-02-07T03:31:31.675Z,24.00
2018-02-07T03:32:31.640Z,24.30
2018-02-07T03:33:31.611Z,23.30
2018-02-07T03:34:31.579Z,23.50
2018-02-07T03:35:31.550Z,23.40
2018-02-07T03:36:31.519Z,24.60
2018-02-07T03:37:31.488Z,22.90
2018-02-07T03:38:31.458Z,23.50
2018-02-07T03:39:31.427Z,23.60
2018-02-07T03:40:31.396Z,24.10
2018-02-07T03:41:31.370Z,24.30
2018-02-07T03:42:31.335Z,25.40
2018-02-07T03:43:31.308Z,24.00
2018-02-07T03:44:31.275Z,23.20
2018-02-07T03:45:31.244Z,24.00
2018-02-07T03:46:31.213Z,23.40
2018-02-07T03:47:31.184Z,25.00
2018-02-07T03:48:31.151Z,24.50
2018-02-07T03:49:31.121Z,23.80
2018-02-07T03:50:31.092Z,23.20
2018-02-07T03:51:31.063Z,22.60
2018-02-07T03:52:31.030Z,24.30
2018-02-07T03:53:31.001Z,23.20
2018-02-07T03:54:30.970Z,23.50
2018-02-07T03:55:30.939Z,23.30
2018-02-07T03:56:30.909Z,23.60
2018-02-07T03:57:30.877Z,23.60
2018-02-07T03:58:30.847Z,24.30
2018-02-07T03:59:30.819Z,24.20
2018-02-07T04:00:30.786Z,23.90
2018-02-07T04:01:30.757Z,22.70
2018-02-07T04:02:30.727Z,24.00
2018-02-07T04:03:30.695Z,23.30
2018-02-07T04:04:30.665Z,24.10
2018-02-07T04:05:30.634Z,23.80
2018-02-07T04:06:30.604Z,24.50
2018-02-07T04:07:30.576Z,24.20
2018-02-07T04:08:30.542Z,24.70
2018-02-07T04:09:30.518Z,23.90
2018-02-07T04:10:30.481Z,23.80
2018-02-07T04:11:30.450Z,24.00
2018-02-07T04:12:30.427Z,24.90
2018-02-07T04:13:30.390Z,24.10
2018-02-07T04:14:30.361Z,24.00
2018-02-07T04:15:30.330Z,23.50
2018-02-07T04:16:30.298Z,23.80
2018-02-07T04:17:30.267Z,23.80
2018-02-07T04:18:30.238Z,24.10
2018-02-07T04:19:30.212Z,23.10
2018-02-07T04:20:30.176Z,24.10
2018-02-07T04:21:30.146Z,22.90
2018-02-07T04:22:30.114Z,22.10
2018-02-07T04:23:30.086Z,23.00
2018-02-07T04:24:30.054Z,23.00
2018-02-07T04:25:30.023Z,23.40
2018-02-07T04:26:29.992Z,22.80
2018-02-07T04:27:29.961Z,23.80
2018-02-07T04:28:29.930Z,22.50
2018-02-07T04:29:29.900Z,23.50
2018-02-07T04:30:29.868Z,23.70
2018-02-07T04:31:29.839Z,22.20
2018-02-07T04:32:29.809Z,23.40
2018-02-07T04:33:29.778Z,23.40
2018-02-07T04:34:29.747Z,24.10
2018-02-07T04:35:29.716Z,22.90
2018-02-07T04:36:29.685Z,23.10
2018-02-07T04:37:29.655Z,22.90
2018-02-07T04:38:29.624Z,23.40
2018-02-07T04:39:29.593Z,22.50
2018-02-07T04:40:29.563Z,23.50
2018-02-07T04:41:29.532Z,23.70
2018-02-07T04:42:29.501Z,23.30
2018-02-07T04:43:29.471Z,24.00
2018-02-07T04:44:29.439Z,22.30
2018-02-07T04:45:29.407Z,22.90
2018-02-07T04:46:29.379Z,23.00
2018-02-07T04:47:29.348Z,23.80
2018-02-07T04:48:29.315Z,23.40
2018-02-07T04:49:29.285Z,22.50
2018-02-07T04:50:29.255Z,24.00
2018-02-07T04:51:29.225Z,21.90
2018-02-07T04:52:29.194Z,23.70
2018-02-07T04:53:29.162Z,23.40
2018-02-07T04:54:29.132Z,23.00
2018-02-07T04:55:29.102Z,23.30
2018-02-07T04:56:29.069Z,23.00
2018-02-07T04:57:29.039Z,22.80
2018-02-07T04:58:29.007Z,21.50
2018-02-07T04:59:28.977Z,23.60
2018-02-07T05:00:28.946Z,23.50
2018-02-07T05:01:28.926Z,22.70
2018-02-07T05:02:28.897Z,23.70
2018-02-07T05:03:28.886Z,23.00
2018-02-07T05:04:28.831Z,22.90
2018-02-07T05:05:28.802Z,22.10
2018-02-07T05:06:28.773Z,23.70
2018-02-07T05:07:28.746Z,22.40
2018-02-07T05:08:28.712Z,22.50
2018-02-07T05:09:28.686Z,23.90
2018-02-07T05:10:28.650Z,22.80
2018-02-07T05:11:28.608Z,23.20
2018-02-07T05:12:28.600Z,24.90
2018-02-07T05:13:28.556Z,24.50
2018-02-07T05:14:28.515Z,23.20
2018-02-07T05:15:28.485Z,22.20
2018-02-07T05:16:28.465Z,22.00
2018-02-07T05:17:28.445Z,24.00
2018-02-07T05:18:28.399Z,22.80
2018-02-07T05:19:28.371Z,24.40
2018-02-07T05:20:28.340Z,22.70
2018-02-07T05:21:28.312Z,22.60
2018-02-07T05:22:28.275Z,22.30
2018-02-07T05:23:28.239Z,22.80
2018-02-07T05:24:28.215Z,23.10
2018-02-07T05:25:28.178Z,23.20
2018-02-07T05:26:28.159Z,22.80
2018-02-07T05:27:28.116Z,23.90
2018-02-07T05:28:28.093Z,23.80
2018-02-07T05:29:28.059Z,23.20
2018-02-07T05:30:28.022Z,23.80
2018-02-07T05:31:27.989Z,23.30
2018-02-07T05:32:27.962Z,23.70
2018-02-07T05:33:27.936Z,24.50
2018-02-07T05:34:27.907Z,23.60
2018-02-07T05:35:27.885Z,24.10
2018-02-07T05:36:27.833Z,23.90
2018-02-07T05:37:27.818Z,23.20
2018-02-07T05:38:28.051Z,23.40
2018-02-07T05:39:28.059Z,23.10
2018-02-07T05:40:27.713Z,23.80
2018-02-07T05:41:27.680Z,24.60
2018-02-07T05:42:27.647Z,23.40
2018-02-07T05:43:27.624Z,23.70
2018-02-07T05:44:27.584Z,23.30
2018-02-07T05:45:27.553Z,22.50
2018-02-07T05:46:27.523Z,23.90
2018-02-07T05:47:27.493Z,23.30
2018-02-07T05:48:27.459Z,23.50
2018-02-07T05:49:27.428Z,22.80
2018-02-07T05:50:27.398Z,24.60
2018-02-07T05:51:27.366Z,24.40
2018-02-07T05:52:27.333Z,23.80
2018-02-07T05:53:27.304Z,23.00
2018-02-07T05:54:27.272Z,24.60
2018-02-07T05:55:27.241Z,23.70
2018-02-07T05:56:27.209Z,24.40
2018-02-07T05:57:27.177Z,24.80
2018-02-07T05:58:27.150Z,23.60
2018-02-07T05:59:27.116Z,24.20
2018-02-07T06:00:27.082Z,25.20
2018-02-07T06:01:27.052Z,24.60
2018-02-07T06:02:27.023Z,26.10
2018-02-07T06:03:26.990Z,24.30
2018-02-07T06:04:26.958Z,24.50
2018-02-07T06:05:26.927Z,25.00
2018-02-07T06:06:26.894Z,24.30
2018-02-07T06:07:26.863Z,24.00
2018-02-07T06:08:26.831Z,25.70
2018-02-07T06:09:26.800Z,23.80
2018-02-07T06:10:26.769Z,23.10
2018-02-07T06:11:26.740Z,23.80
2018-02-07T06:12:26.705Z,24.30
2018-02-07T06:13:26.675Z,25.40
2018-02-07T06:14:26.643Z,24.00
2018-02-07T06:15:26.612Z,24.60
2018-02-07T06:16:26.580Z,24.60
2018-02-07T06:17:26.549Z,25.90
2018-02-07T06:18:26.518Z,25.40
2018-02-07T06:19:26.485Z,25.80
2018-02-07T06:20:26.453Z,24.80
2018-02-07T06:21:26.422Z,25.90
2018-02-07T06:22:26.393Z,24.90
2018-02-07T06:23:26.360Z,25.40
2018-02-07T06:24:26.327Z,25.60
2018-02-07T06:25:26.296Z,25.60
2018-02-07T06:26:26.265Z,24.90
2018-02-07T06:27:26.234Z,25.20
2018-02-07T06:28:26.201Z,26.10
2018-02-07T06:29:26.169Z,24.60
2018-02-07T06:30:26.210Z,25.70
2018-02-07T06:31:26.106Z,26.30
2018-02-07T06:32:26.075Z,26.70
2018-02-07T06:33:26.045Z,25.90
2018-02-07T06:34:26.012Z,25.70
2018-02-07T06:35:25.983Z,25.40
2018-02-07T06:36:25.961Z,25.50
2018-02-07T06:37:25.950Z,26.70
2018-02-07T06:38:25.889Z,26.50
2018-02-07T06:39:25.854Z,25.40
2018-02-07T06:40:25.819Z,26.10
2018-02-07T06:41:25.801Z,25.10
2018-02-07T06:42:25.760Z,24.10
2018-02-07T06:43:25.727Z,25.60
2018-02-07T06:44:25.693Z,23.90
2018-02-07T06:45:25.660Z,24.30
2018-02-07T06:46:25.647Z,24.80
2018-02-07T06:47:25.621Z,25.40
2018-02-07T06:48:25.572Z,25.00
2018-02-07T06:49:25.537Z,24.70
2018-02-07T06:50:25.532Z,24.80
2018-02-07T06:51:25.472Z,23.90
2018-02-07T06:52:25.489Z,23.50
2018-02-07T06:53:25.412Z,24.10
2018-02-07T06:54:25.400Z,26.60
2018-02-07T06:55:25.354Z,25.50
2018-02-07T06:56:25.315Z,23.70
2018-02-07T06:57:25.282Z,26.70
2018-02-07T06:58:25.250Z,25.10
2018-02-07T06:59:25.224Z,25.20
2018-02-07T07:00:25.189Z,26.70
2018-02-07T07:01:25.150Z,24.20
2018-02-07T07:02:25.127Z,26.00
2018-02-07T07:03:25.098Z,25.60
2018-02-07T07:04:25.057Z,24.80
2018-02-07T07:05:25.027Z,24.30
2018-02-07T07:06:25.004Z,25.30
2018-02-07T07:07:24.963Z,24.40
2018-02-07T07:08:24.931Z,24.20
2018-02-07T07:09:24.916Z,25.50
2018-02-07T07:10:24.878Z,24.60
2018-02-07T07:11:25.589Z,25.10
2018-02-07T07:12:24.811Z,24.20
2018-02-07T07:13:24.775Z,24.90
2018-02-07T07:14:24.750Z,24.10
2018-02-07T07:15:24.726Z,24.80
2018-02-07T07:16:24.681Z,24.60
2018-02-07T07:17:24.649Z,25.60
2018-02-07T07:18:24.613Z,24.30
2018-02-07T07:19:24.582Z,24.40
2018-02-07T07:20:24.549Z,23.90
2018-02-07T07:21:24.518Z,24.40
2018-02-07T07:22:24.484Z,25.10
2018-02-07T07:23:24.456Z,24.50
2018-02-07T07:24:24.420Z,24.70
2018-02-07T07:25:24.390Z,24.90
2018-02-07T07:26:24.359Z,23.60
2018-02-07T07:27:24.324Z,25.30
2018-02-07T07:28:24.295Z,23.60
2018-02-07T07:29:24.261Z,24.70
2018-02-07T07:30:24.235Z,23.50
2018-02-07T07:31:24.204Z,24.00
2018-02-07T07:32:24.166Z,23.80
2018-02-07T07:33:24.135Z,24.20
2018-02-07T07:34:24.105Z,22.80
2018-02-07T07:35:24.074Z,24.10
2018-02-07T07:36:24.040Z,24.20
2018-02-07T07:37:24.017Z,24.80
2018-02-07T07:38:23.976Z,22.30
2018-02-07T07:39:23.944Z,24.60
2018-02-07T07:40:23.908Z,24.70
2018-02-07T07:41:23.883Z,24.50
2018-02-07T07:42:23.846Z,24.00
2018-02-07T07:43:23.815Z,24.00
2018-02-07T07:44:23.780Z,23.90
2018-02-07T07:45:23.755Z,23.20
2018-02-07T07:46:23.724Z,24.50
2018-02-07T07:47:23.691Z,23.20
2018-02-07T07:48:23.658Z,24.10
2018-02-07T07:49:23.625Z,23.40
2018-02-07T07:50:23.601Z,23.60
2018-02-07T07:51:23.562Z,23.90
2018-02-07T07:52:23.531Z,23.70
2018-02-07T07:53:23.498Z,23.90
2018-02-07T07:54:23.467Z,24.10
2018-02-07T07:55:23.434Z,22.30
2018-02-07T07:56:23.401Z,22.20
2018-02-07T07:57:23.368Z,23.30
2018-02-07T07:58:23.340Z,22.70
2018-02-07T07:59:23.315Z,22.80
2018-02-07T08:00:23.284Z,24.00
2018-02-07T08:01:23.247Z,23.70
2018-02-07T08:02:23.213Z,21.40
2018-02-07T08:03:23.177Z,22.90
2018-02-07T08:04:23.157Z,22.40
2018-02-07T08:05:23.117Z,21.60
2018-02-07T08:06:23.082Z,21.10
2018-02-07T08:07:23.051Z,21.00
2018-02-07T08:08:23.021Z,22.70
2018-02-07T08:09:22.993Z,22.80
2018-02-07T08:10:22.956Z,22.80
2018-02-07T08:11:22.928Z,21.90
2018-02-07T08:12:22.896Z,22.30
2018-02-07T08:13:22.876Z,22.10
2018-02-07T08:14:22.840Z,22.00
2018-02-07T08:15:22.817Z,23.20
2018-02-07T08:16:22.768Z,23.00
2018-02-07T08:17:22.733Z,23.60
2018-02-07T08:18:22.702Z,23.00
2018-02-07T08:19:22.674Z,21.60
2018-02-07T08:20:22.660Z,23.50
2018-02-07T08:21:22.643Z,22.30
2018-02-07T08:22:22.577Z,22.70
2018-02-07T08:23:22.539Z,22.60
2018-02-07T08:24:22.544Z,22.30
2018-02-07T08:25:22.496Z,23.60
2018-02-07T08:26:22.451Z,22.50
2018-02-07T08:27:22.468Z,20.90
2018-02-07T08:28:22.387Z,21.80
2018-02-07T08:29:22.355Z,22.70
2018-02-07T08:30:22.324Z,22.20
2018-02-07T08:31:22.294Z,21.50
2018-02-07T08:32:22.274Z,22.40
2018-02-07T08:33:22.248Z,23.60
2018-02-07T08:34:22.245Z,20.90
2018-02-07T08:35:22.166Z,23.20
2018-02-07T08:36:22.135Z,21.90
2018-02-07T08:37:22.115Z,22.70
2018-02-07T08:38:22.103Z,21.60
2018-02-07T08:39:22.043Z,22.00
2018-02-07T08:40:22.007Z,21.40
2018-02-07T08:41:21.971Z,21.60
2018-02-07T08:42:21.964Z,21.60
2018-02-07T08:43:22.081Z,21.40
2018-02-07T08:44:21.931Z,20.90
2018-02-07T08:45:21.849Z,22.50
2018-02-07T08:46:21.828Z,21.90
2018-02-07T08:47:21.870Z,21.30
2018-02-07T08:48:21.750Z,22.10
2018-02-07T08:49:21.726Z,21.70
2018-02-07T08:50:21.729Z,21.90
2018-02-07T08:51:21.708Z,20.20
2018-02-07T08:52:21.701Z,20.80
2018-02-07T08:53:21.626Z,21.00
2018-02-07T08:54:21.599Z,20.50
2018-02-07T08:55:21.555Z,21.30
2018-02-07T08:56:21.501Z,20.70
2018-02-07T08:57:21.473Z,19.70
2018-02-07T08:58:21.442Z,21.10
2018-02-07T08:59:21.432Z,20.30
2018-02-07T09:00:21.376Z,21.50
2018-02-07T09:01:21.350Z,20.40
2018-02-07T09:02:21.314Z,22.00
2018-02-07T09:03:21.281Z,20.00
2018-02-07T09:04:21.255Z,20.00
2018-02-07T09:05:21.227Z,21.20
2018-02-07T09:06:21.190Z,20.70
2018-02-07T09:07:21.199Z,19.20
2018-02-07T09:08:21.131Z,20.10
2018-02-07T09:09:21.113Z,20.20
2018-02-07T09:10:21.065Z,20.10
2018-02-07T09:11:21.040Z,19.80
2018-02-07T09:12:21.020Z,21.00
2018-02-07T09:13:20.972Z,20.70
2018-02-07T09:14:20.946Z,20.00
2018-02-07T09:15:20.928Z,20.10
2018-02-07T09:16:20.895Z,20.30
2018-02-07T09:17:20.848Z,18.70
2018-02-07T09:18:20.814Z,20.90
2018-02-07T09:19:20.787Z,19.70
2018-02-07T09:20:20.775Z,20.10
2018-02-07T09:21:20.722Z,19.20
2018-02-07T09:22:20.699Z,19.20
2018-02-07T09:23:20.668Z,20.00
2018-02-07T09:24:20.640Z,19.40
2018-02-07T09:25:20.805Z,19.20
2018-02-07T09:26:20.603Z,19.60
2018-02-07T09:27:20.564Z,18.50
2018-02-07T09:28:20.518Z,18.50
2018-02-07T09:29:20.482Z,19.40
2018-02-07T09:30:20.454Z,20.00
2018-02-07T09:31:20.429Z,17.80
2018-02-07T09:32:20.386Z,20.20
2018-02-07T09:33:20.368Z,19.50
2018-02-07T09:34:20.327Z,19.50
2018-02-07T09:35:20.300Z,19.30
2018-02-07T09:36:20.303Z,17.90
2018-02-07T09:37:20.237Z,18.90
2018-02-07T09:38:20.218Z,19.80
2018-02-07T09:39:20.174Z,18.60
2018-02-07T09:40:20.186Z,19.30
2018-02-07T09:41:20.109Z,18.10
2018-02-07T09:42:20.089Z,18.40
2018-02-07T09:43:20.057Z,19.20
2018-02-07T09:44:20.046Z,18.40
2018-02-07T09:45:20.006Z,17.60
2018-02-07T09:46:19.966Z,17.30
2018-02-07T09:47:19.931Z,18.20
2018-02-07T09:48:19.908Z,17.80
2018-02-07T09:49:19.871Z,18.80
2018-02-07T09:50:19.850Z,18.20
2018-02-07T09:51:19.821Z,18.60
2018-02-07T09:52:19.782Z,17.40
2018-02-07T09:53:19.770Z,18.10
2018-02-07T09:54:19.724Z,19.30
2018-02-07T09:55:19.693Z,18.40
2018-02-07T09:56:19.663Z,17.70
2018-02-07T09:57:19.637Z,17.70
2018-02-07T09:58:19.603Z,17.70
2018-02-07T09:59:19.591Z,17.40
2018-02-07T10:00:19.554Z,17.30
2018-02-07T10:01:19.523Z,17.40
2018-02-07T10:02:19.490Z,17.20
2018-02-07T10:03:19.469Z,17.10
2018-02-07T10:04:19.437Z,16.60
2018-02-07T10:05:19.402Z,18.50
2018-02-07T10:06:19.390Z,18.30
2018-02-07T10:07:19.383Z,17.80
2018-02-07T10:08:19.314Z,18.00
2018-02-07T10:09:19.303Z,16.00
2018-02-07T10:10:19.257Z,17.20
2018-02-07T10:11:19.240Z,18.10
2018-02-07T10:12:19.228Z,18.30
2018-02-07T10:13:19.178Z,17.70
2018-02-07T10:14:19.168Z,19.00
2018-02-07T10:15:19.132Z,16.80
2018-02-07T10:16:19.101Z,17.10
2018-02-07T10:17:19.098Z,15.70
2018-02-07T10:18:19.089Z,17.30
2018-02-07T10:19:19.035Z,16.60
2018-02-07T10:20:19.015Z,18.20
2018-02-07T10:21:18.964Z,15.60
2018-02-07T10:22:18.949Z,15.60
2018-02-07T10:23:18.932Z,15.70
2018-02-07T10:24:18.891Z,17.10
2018-02-07T10:25:18.869Z,17.00
2018-02-07T10:26:18.866Z,16.70
2018-02-07T10:27:18.822Z,16.50
2018-02-07T10:28:18.831Z,16.60
2018-02-07T10:29:18.796Z,16.20
2018-02-07T10:30:18.744Z,16.80
2018-02-07T10:31:18.725Z,17.20
2018-02-07T10:32:18.701Z,18.90
2018-02-07T10:33:18.670Z,17.10
2018-02-07T10:34:18.646Z,17.00
2018-02-07T10:35:18.620Z,17.80
2018-02-07T10:36:18.597Z,16.70
2018-02-07T10:37:18.579Z,17.10
2018-02-07T10:38:18.557Z,15.80
2018-02-07T10:39:18.525Z,16.30
2018-02-07T10:40:18.511Z,15.10
2018-02-07T10:41:18.483Z,17.20
2018-02-07T10:42:18.494Z,16.70
2018-02-07T10:43:18.434Z,16.10
2018-02-07T10:44:18.429Z,16.30
2018-02-07T10:45:18.393Z,16.50
2018-02-07T10:46:18.387Z,15.90
2018-02-07T10:47:18.352Z,16.70
2018-02-07T10:48:18.378Z,16.30
2018-02-07T10:49:18.300Z,15.70
2018-02-07T10:50:18.286Z,15.50
2018-02-07T10:51:18.261Z,15.30
2018-02-07T10:52:18.235Z,15.00
2018-02-07T10:53:18.215Z,16.00
2018-02-07T10:54:18.202Z,15.60
2018-02-07T10:55:18.171Z,15.50
2018-02-07T10:56:18.155Z,15.10
2018-02-07T10:57:18.128Z,14.80
2018-02-07T10:58:18.108Z,14.90
2018-02-07T10:59:18.088Z,15.20
2018-02-07T11:00:18.068Z,15.00
2018-02-07T11:01:18.065Z,15.60
2018-02-07T11:02:18.029Z,14.80
2018-02-07T11:03:18.009Z,15.00
2018-02-07T11:04:18.004Z,14.90
2018-02-07T11:05:17.973Z,15.60
2018-02-07T11:06:17.961Z,15.00
2018-02-07T11:07:17.932Z,14.00
2018-02-07T11:08:17.919Z,15.30
2018-02-07T11:09:17.902Z,14.50
2018-02-07T11:10:17.885Z,15.10
2018-02-07T11:11:17.858Z,14.70
2018-02-07T11:12:17.836Z,14.60
2018-02-07T11:13:17.822Z,14.60
2018-02-07T11:14:17.813Z,14.30
2018-02-07T11:15:17.782Z,14.10
2018-02-07T11:16:17.759Z,14.80
2018-02-07T11:17:17.754Z,14.10
2018-02-07T11:18:17.727Z,14.60
2018-02-07T11:19:17.709Z,14.80
2018-02-07T11:20:17.703Z,14.60
2018-02-07T11:21:17.690Z,14.50
2018-02-07T11:22:17.714Z,15.40
2018-02-07T11:23:17.637Z,13.90
2018-02-07T11:24:17.633Z,14.50
2018-02-07T11:25:17.606Z,14.90
2018-02-07T11:26:17.589Z,14.50
2018-02-07T11:27:17.569Z,15.60
2018-02-07T11:28:17.584Z,14.70
2018-02-07T11:29:17.540Z,14.60
2018-02-07T11:30:17.521Z,15.10
2018-02-07T11:31:17.507Z,14.80
2018-02-07T11:32:17.490Z,14.70
2018-02-07T11:33:17.473Z,15.50
2018-02-07T11:34:17.461Z,15.10
2018-02-07T11:35:17.443Z,14.30
2018-02-07T11:36:17.419Z,15.50
2018-02-07T11:37:17.413Z,15.20
2018-02-07T11:38:17.393Z,15.10
2018-02-07T11:39:17.385Z,14.80
2018-02-07T11:40:17.355Z,15.30
2018-02-07T11:41:17.338Z,14.90
2018-02-07T11:42:17.321Z,14.00
2018-02-07T11:43:17.305Z,14.80
2018-02-07T11:44:17.322Z,15.70
2018-02-07T11:45:17.272Z,15.20
2018-02-07T11:46:17.260Z,14.60
2018-02-07T11:47:17.254Z,14.90
2018-02-07T11:48:17.230Z,15.60
2018-02-07T11:49:17.217Z,15.30
2018-02-07T11:50:17.196Z,14.80
2018-02-07T11:51:17.176Z,15.90
2018-02-07T11:52:17.167Z,14.60
2018-02-07T11:53:17.148Z,13.40
2018-02-07T11:54:17.131Z,14.10
2018-02-07T11:55:17.118Z,14.50
2018-02-07T11:56:17.120Z,15.30
2018-02-07T11:57:17.088Z,14.10
2018-02-07T11:58:17.074Z,14.40
2018-02-07T11:59:17.073Z,15.00
2018-02-07T12:00:17.041Z,15.10
2018-02-07T12:01:17.023Z,14.30
2018-02-07T12:02:17.025Z,15.20
2018-02-07T12:03:16.997Z,14.60
2018-02-07T12:04:16.981Z,14.40
2018-02-07T12:05:16.985Z,14.10
2018-02-07T12:06:16.946Z,15.00
2018-02-07T12:07:16.930Z,14.60
2018-02-07T12:08:16.921Z,15.10
2018-02-07T12:09:16.922Z,15.30
2018-02-07T12:10:16.890Z,18.30
2018-02-07T12:11:16.878Z,26.90
2018-02-07T12:12:16.873Z,26.60
2018-02-07T12:13:16.840Z,18.70
2018-02-07T12:14:16.838Z,21.50
2018-02-07T12:15:16.819Z,24.00
2018-02-07T12:16:16.801Z,21.90
2018-02-07T12:17:16.784Z,16.20
2018-02-07T12:18:16.770Z,20.40
2018-02-07T12:19:16.765Z,16.60
2018-02-07T12:20:16.743Z,25.00
2018-02-07T12:21:16.724Z,17.10
2018-02-07T12:22:16.723Z,17.50
2018-02-07T12:23:16.694Z,19.80
2018-02-07T12:24:16.683Z,23.80
2018-02-07T12:25:16.670Z,17.90
2018-02-07T12:26:16.707Z,15.30
2018-02-07T12:27:16.655Z,17.40
2018-02-07T12:28:16.627Z,15.90
2018-02-07T12:29:16.614Z,16.70
2018-02-07T12:30:16.595Z,24.40
2018-02-07T12:31:16.575Z,21.70
2018-02-07T12:32:16.565Z,19.70
2018-02-07T12:33:16.577Z,19.60
2018-02-07T12:34:16.543Z,26.10
2018-02-07T12:35:16.532Z,24.40
2018-02-07T12:36:16.503Z,16.80
2018-02-07T12:37:16.543Z,14.40
2018-02-07T12:38:16.481Z,20.00
2018-02-07T12:39:16.465Z,18.10
2018-02-07T12:40:16.448Z,18.80
2018-02-07T12:41:16.431Z,16.20
2018-02-07T12:42:16.418Z,15.60
2018-02-07T12:43:16.404Z,16.10
2018-02-07T12:44:16.387Z,16.30
2018-02-07T12:45:16.379Z,18.70
2018-02-07T12:46:16.894Z,17.50
2018-02-07T12:47:16.341Z,15.10
2018-02-07T12:48:16.341Z,15.50
2018-02-07T12:49:16.320Z,15.60
2018-02-07T12:50:16.304Z,14.70
2018-02-07T12:51:16.305Z,17.00
2018-02-07T12:52:16.279Z,22.00